Time;durP1;ratioP1;P1;durP2;ratioP2;P2;SDS_P1;SDS_P2;PMS_P1;PMS_P2;Temp;Humidity;BMP_temperature;BMP_pressure;BME280_temperature;BME280_humidity;BME280_pressure;Samples;Min_cycle;Max_cycle;Signal;HPM_P1;HPM_P2
2023/04/14 00:01:30;;;;;;;2.60;0.80;;;6.20;99.90;;;;;;4999736;28;20057;-77
2023/04/14 00:03:56;;;;;;;3.10;1.63;;;6.20;99.90;;;;;;5000522;28;20046;-76
2023/04/14 00:06:21;;;;;;;2.08;0.77;;;6.20;99.90;;;;;;4994880;28;20096;-77
2023/04/14 00:08:47;;;;;;;2.17;0.80;;;6.10;99.90;;;;;;5033937;28;20149;-77
2023/04/14 00:11:13;;;;;;;2.72;0.60;;;6.10;99.90;;;;;;5019124;28;20054;-77
2023/04/14 00:13:38;;;;;;;2.53;0.70;;;6.10;99.90;;;;;;4999322;28;20415;-77
2023/04/14 00:16:05;;;;;;;2.45;0.80;;;6.00;99.90;;;;;;4995151;28;20041;-77
2023/04/14 00:18:31;;;;;;;2.97;0.63;;;6.00;99.90;;;;;;5016491;28;20139;-77
2023/04/14 00:20:57;;;;;;;1.50;0.57;;;5.90;99.90;;;;;;4998248;28;20046;-77
2023/04/14 00:23:22;;;;;;;1.98;0.77;;;5.80;99.90;;;;;;5016464;28;20041;-78
2023/04/14 00:25:51;;;;;;;1.75;0.75;;;5.90;99.90;;;;;;5014101;28;20568;-76
2023/04/14 00:28:16;;;;;;;3.85;1.10;;;5.70;99.90;;;;;;5031725;28;20044;-77
2023/04/14 00:30:42;;;;;;;1.08;0.60;;;5.70;99.90;;;;;;4997476;28;20038;-77
2023/04/14 00:33:07;;;;;;;3.45;0.95;;;5.70;99.90;;;;;;4998328;28;20124;-77
2023/04/14 00:35:33;;;;;;;4.03;0.80;;;5.70;99.90;;;;;;5017047;28;20049;-77
2023/04/14 00:37:59;;;;;;;3.55;1.05;;;5.70;99.90;;;;;;5020845;28;20042;-78
2023/04/14 00:40:25;;;;;;;2.58;1.10;;;5.70;99.90;;;;;;5016146;28;20075;-76
2023/04/14 00:42:51;;;;;;;1.20;0.63;;;5.70;99.90;;;;;;5029931;28;20094;-77
2023/04/14 00:45:16;;;;;;;1.25;0.75;;;5.70;99.90;;;;;;4999975;28;20427;-77
2023/04/14 00:47:49;;;;;;;3.17;1.33;;;5.60;99.90;;;;;;5030730;28;20042;-77
2023/04/14 00:50:17;;;;;;;1.90;0.70;;;5.60;99.90;;;;;;5015363;28;20034;-77
2023/04/14 00:52:45;;;;;;;3.92;1.27;;;5.60;99.90;;;;;;5016287;28;20136;-76
2023/04/14 00:55:12;;;;;;;2.25;0.63;;;5.60;99.90;;;;;;5031667;28;20038;-77
2023/04/14 00:57:39;;;;;;;1.00;0.43;;;5.60;99.90;;;;;;5017325;28;20124;-77
2023/04/14 01:00:05;;;;;;;3.17;0.75;;;5.60;99.90;;;;;;5017446;28;20495;-77
2023/04/14 01:02:31;;;;;;;1.38;0.60;;;5.50;99.90;;;;;;5017894;28;20468;-77
2023/04/14 01:04:57;;;;;;;1.20;0.50;;;5.50;99.90;;;;;;5003394;28;20100;-77
2023/04/14 01:07:25;;;;;;;5.53;0.80;;;5.40;99.90;;;;;;5018491;28;20124;-77
2023/04/14 01:09:53;;;;;;;0.40;0.30;;;5.40;99.90;;;;;;5007464;28;20054;-77
2023/04/14 01:12:30;;;;;;;2.50;0.57;;;5.40;99.90;;;;;;5019327;28;20108;-77
2023/04/14 01:15:22;;;;;;;0.95;0.63;;;5.30;99.90;;;;;;5018572;28;20072;-77
2023/04/14 01:18:01;;;;;;;1.48;0.40;;;5.30;99.90;;;;;;5029416;28;20037;-77
2023/04/14 01:20:48;;;;;;;1.65;0.52;;;5.30;99.90;;;;;;5014547;28;20040;-77
2023/04/14 01:23:46;;;;;;;3.85;0.80;;;5.40;99.90;;;;;;4995044;28;20070;-77
2023/04/14 01:26:38;;;;;;;0.57;0.43;;;5.40;99.90;;;;;;5013270;28;20058;-76
2023/04/14 01:29:34;;;;;;;1.20;0.50;;;5.40;99.90;;;;;;5029183;28;20037;-77
2023/04/14 01:32:09;;;;;;;2.28;0.70;;;5.50;99.90;;;;;;5034310;28;20048;-77
2023/04/14 01:34:37;;;;;;;2.00;0.90;;;5.50;99.90;;;;;;5017723;28;20042;-76
2023/04/14 01:37:12;;;;;;;0.82;0.40;;;5.50;99.90;;;;;;5016595;28;20495;-77
2023/04/14 01:39:41;;;;;;;5.95;0.73;;;5.60;99.90;;;;;;5003129;28;20171;-76
2023/04/14 01:42:12;;;;;;;2.67;0.95;;;5.60;99.90;;;;;;5018227;28;20045;-77
2023/04/14 01:44:39;;;;;;;1.60;0.60;;;5.60;99.90;;;;;;5004774;28;20487;-77
2023/04/14 01:47:09;;;;;;;3.17;0.73;;;5.70;99.90;;;;;;5019042;28;20320;-77
2023/04/14 01:49:38;;;;;;;1.88;0.65;;;5.70;99.90;;;;;;5024677;28;20490;-77
2023/04/14 01:52:08;;;;;;;2.22;0.50;;;5.70;99.90;;;;;;4999953;28;20050;-77
2023/04/14 01:54:37;;;;;;;2.95;0.75;;;5.70;99.90;;;;;;5035621;28;20496;-77
2023/04/14 01:57:04;;;;;;;1.38;0.60;;;5.70;99.90;;;;;;5017597;28;20033;-77
2023/04/14 01:59:32;;;;;;;3.83;0.68;;;5.60;99.90;;;;;;5003916;28;20045;-77
2023/04/14 02:02:00;;;;;;;2.53;0.93;;;5.70;99.90;;;;;;5002987;28;20505;-77
2023/04/14 02:04:28;;;;;;;1.73;0.82;;;5.60;99.90;;;;;;4987692;28;20383;-77
2023/04/14 02:06:56;;;;;;;1.55;1.27;;;5.60;99.90;;;;;;5035362;28;20042;-77
2023/04/14 02:09:25;;;;;;;2.83;0.60;;;5.60;99.90;;;;;;5019789;28;20129;-77
2023/04/14 02:11:52;;;;;;;2.00;0.98;;;5.60;99.90;;;;;;5049135;28;20062;-78
2023/04/14 02:14:18;;;;;;;2.90;0.88;;;5.60;99.90;;;;;;5033652;28;20039;-76
2023/04/14 02:16:47;;;;;;;2.10;0.55;;;5.50;99.90;;;;;;5019355;28;20400;-78
2023/04/14 02:19:15;;;;;;;1.42;0.70;;;5.60;99.90;;;;;;5016627;28;20045;-77
2023/04/14 02:21:42;;;;;;;0.95;0.55;;;5.60;99.90;;;;;;5011154;28;20062;-78
2023/04/14 02:24:08;;;;;;;2.00;0.90;;;5.60;99.90;;;;;;5000950;28;20049;-78
2023/04/14 02:26:39;;;;;;;1.05;0.70;;;5.70;99.90;;;;;;5003506;28;20363;-78
2023/04/14 02:29:10;;;;;;;1.15;0.73;;;5.70;99.90;;;;;;5016570;28;20522;-77
2023/04/14 02:31:42;;;;;;;2.05;0.73;;;5.70;99.90;;;;;;5002892;28;20049;-78
2023/04/14 02:34:12;;;;;;;2.67;0.95;;;5.70;99.90;;;;;;5018661;28;20030;-77
2023/04/14 02:36:56;;;;;;;1.85;0.88;;;5.70;99.90;;;;;;5032081;28;20188;-78
2023/04/14 02:39:30;;;;;;;2.60;0.90;;;5.80;99.90;;;;;;4987025;28;20037;-78
2023/04/14 02:42:01;;;;;;;2.60;0.93;;;5.80;99.90;;;;;;5004126;28;20042;-77
2023/04/14 02:44:31;;;;;;;1.90;0.80;;;5.80;99.90;;;;;;5019949;28;20033;-78
2023/04/14 02:47:07;;;;;;;1.67;0.70;;;5.80;99.90;;;;;;5050738;28;20046;-78
2023/04/14 02:49:45;;;;;;;3.65;0.88;;;5.80;99.90;;;;;;4997418;28;20038;-77
2023/04/14 02:52:14;;;;;;;1.90;0.80;;;5.90;99.90;;;;;;5001427;28;20038;-77
2023/04/14 02:54:44;;;;;;;2.28;0.80;;;5.90;99.90;;;;;;4998995;28;20534;-77
2023/04/14 02:57:10;;;;;;;1.45;0.77;;;5.90;99.90;;;;;;5003086;28;20061;-78
2023/04/14 02:59:37;;;;;;;1.20;0.63;;;5.90;99.90;;;;;;5019314;28;20111;-78
2023/04/14 03:02:04;;;;;;;1.25;0.65;;;5.90;99.90;;;;;;5019068;28;20046;-78
2023/04/14 03:04:36;;;;;;;1.67;0.70;;;5.80;99.90;;;;;;5026045;28;20041;-78
2023/04/14 03:07:04;;;;;;;2.03;1.00;;;5.80;99.90;;;;;;5019709;28;20046;-78
2023/04/14 03:09:31;;;;;;;1.85;0.90;;;5.80;99.90;;;;;;5015862;28;20912;-77
2023/04/14 03:11:58;;;;;;;3.92;1.23;;;5.70;99.90;;;;;;5050019;28;20077;-78
2023/04/14 03:14:24;;;;;;;1.50;0.68;;;5.70;99.90;;;;;;5032518;28;20073;-78
2023/04/14 03:16:52;;;;;;;4.40;0.98;;;5.70;99.90;;;;;;5003093;28;20042;-77
2023/04/14 03:19:22;;;;;;;3.58;1.10;;;5.60;99.90;;;;;;5000095;28;20046;-77
2023/04/14 03:21:49;;;;;;;2.22;0.93;;;5.60;99.90;;;;;;4999263;28;20034;-78
2023/04/14 03:24:23;;;;;;;2.95;2.13;;;5.60;99.90;;;;;;5001512;28;20073;-78
2023/04/14 03:26:56;;;;;;;2.78;0.85;;;5.60;99.90;;;;;;5032459;28;20117;-78
2023/04/14 03:29:25;;;;;;;2.03;0.80;;;5.60;99.90;;;;;;5002044;28;20034;-78
2023/04/14 03:31:54;;;;;;;3.33;1.08;;;5.70;99.90;;;;;;5017608;28;20037;-77
2023/04/14 03:34:21;;;;;;;1.73;0.88;;;5.70;99.90;;;;;;5030300;28;20038;-78
2023/04/14 03:36:50;;;;;;;1.63;0.77;;;5.70;99.90;;;;;;5044300;28;20065;-78
2023/04/14 03:39:17;;;;;;;1.70;1.00;;;5.70;99.90;;;;;;5030311;28;20137;-78
2023/04/14 03:41:48;;;;;;;1.48;0.60;;;5.70;99.90;;;;;;4998537;28;20049;-78
2023/04/14 03:44:17;;;;;;;2.25;0.80;;;5.70;99.90;;;;;;5015282;28;21299;-78
2023/04/14 03:46:43;;;;;;;1.48;0.77;;;5.60;99.90;;;;;;5018434;28;20045;-78
2023/04/14 03:49:12;;;;;;;2.13;1.08;;;5.60;99.90;;;;;;5033414;28;20042;-78
2023/04/14 03:51:39;;;;;;;0.93;0.50;;;5.60;99.90;;;;;;4991064;28;20830;-78
2023/04/14 03:54:06;;;;;;;1.92;0.70;;;5.60;99.90;;;;;;5014449;28;20096;-77
2023/04/14 03:56:38;;;;;;;2.03;1.08;;;5.60;99.90;;;;;;5013820;28;20108;-78
2023/04/14 03:59:06;;;;;;;2.30;0.90;;;5.50;99.90;;;;;;5051627;28;20065;-78
2023/04/14 04:01:32;;;;;;;1.90;0.73;;;5.50;99.90;;;;;;5031788;28;20029;-77
2023/04/14 04:04:01;;;;;;;2.60;1.05;;;5.50;99.90;;;;;;5032725;28;20041;-78
2023/04/14 04:06:27;;;;;;;5.97;0.90;;;5.50;99.90;;;;;;5000590;28;20447;-78
2023/04/14 04:08:54;;;;;;;4.10;1.10;;;5.50;99.90;;;;;;5015138;28;20038;-78
2023/04/14 04:11:21;;;;;;;3.22;0.85;;;5.40;99.90;;;;;;5014535;28;20108;-78
2023/04/14 04:13:48;;;;;;;2.33;0.88;;;5.40;99.90;;;;;;4995517;28;20159;-78
2023/04/14 04:16:15;;;;;;;2.22;0.82;;;5.30;99.90;;;;;;5001739;28;20042;-78
2023/04/14 04:18:45;;;;;;;3.85;0.90;;;5.30;99.90;;;;;;5018626;28;20038;-78
2023/04/14 04:21:15;;;;;;;3.80;1.08;;;5.20;99.90;;;;;;4996095;28;20040;-78
2023/04/14 04:23:42;;;;;;;4.45;0.90;;;5.20;99.90;;;;;;5018090;28;20132;-78
2023/04/14 04:26:08;;;;;;;2.33;1.10;;;5.10;99.90;;;;;;4999989;28;20247;-78
2023/04/14 04:28:35;;;;;;;5.88;1.00;;;5.10;99.90;;;;;;5034938;28;20120;-78
2023/04/14 04:31:05;;;;;;;4.05;0.70;;;5.00;99.90;;;;;;5014686;28;20562;-78
2023/04/14 04:33:31;;;;;;;2.63;0.88;;;5.00;99.90;;;;;;5030331;28;20034;-78
2023/04/14 04:35:57;;;;;;;2.05;1.45;;;5.00;99.90;;;;;;5031074;28;20255;-78
2023/04/14 04:38:22;;;;;;;3.63;0.70;;;4.90;99.90;;;;;;5045186;28;20038;-78
2023/04/14 04:40:48;;;;;;;2.13;0.90;;;4.90;99.90;;;;;;4997393;28;20129;-78
2023/04/14 04:43:16;;;;;;;3.58;1.00;;;4.90;99.90;;;;;;5001510;28;20046;-78
2023/04/14 04:46:22;;;;;;;1.90;0.85;;;4.90;99.90;;;;;;4995998;28;20069;-78
2023/04/14 04:48:52;;;;;;;6.53;1.10;;;5.00;99.90;;;;;;5003094;28;20046;-78
2023/04/14 04:51:18;;;;;;;1.88;0.85;;;5.00;99.90;;;;;;5015033;28;20045;-78
2023/04/14 04:53:44;;;;;;;2.03;0.80;;;5.00;99.90;;;;;;4999655;28;20092;-77
2023/04/14 04:56:10;;;;;;;2.35;0.98;;;5.00;99.90;;;;;;5025521;28;20046;-78
2023/04/14 04:58:35;;;;;;;1.70;0.77;;;4.90;99.90;;;;;;5047004;28;20034;-78
2023/04/14 05:01:08;;;;;;;1.92;0.93;;;4.90;99.90;;;;;;5015132;28;20387;-78
2023/04/14 05:03:34;;;;;;;2.08;0.90;;;4.90;99.90;;;;;;5016449;28;20834;-78
2023/04/14 05:05:59;;;;;;;2.45;1.15;;;4.90;99.90;;;;;;5029327;28;20045;-78
2023/04/14 05:08:25;;;;;;;2.60;0.98;;;4.90;99.90;;;;;;5001783;28;20042;-78
2023/04/14 05:10:51;;;;;;;1.92;0.90;;;4.80;99.90;;;;;;4996494;28;20058;-78
2023/04/14 05:13:17;;;;;;;1.98;1.10;;;4.80;99.90;;;;;;5030310;28;20042;-78
2023/04/14 05:15:42;;;;;;;3.47;1.00;;;4.80;99.90;;;;;;5043204;28;20041;-78
2023/04/14 05:18:08;;;;;;;2.70;1.10;;;4.80;99.90;;;;;;4998253;28;20065;-78
2023/04/14 05:20:33;;;;;;;1.65;0.80;;;4.80;99.90;;;;;;5045129;28;20037;-78
2023/04/14 05:22:59;;;;;;;2.97;0.80;;;4.80;99.90;;;;;;4998572;28;20038;-78
2023/04/14 05:25:25;;;;;;;1.42;0.80;;;4.80;99.90;;;;;;4997614;28;20054;-78
2023/04/14 05:27:50;;;;;;;2.22;0.75;;;4.80;99.90;;;;;;5022088;28;20038;-78
2023/04/14 05:30:16;;;;;;;2.13;0.80;;;4.80;99.90;;;;;;4999456;28;20519;-78
2023/04/14 05:32:42;;;;;;;2.05;0.80;;;4.80;99.90;;;;;;5001130;28;20084;-78
2023/04/14 05:35:08;;;;;;;1.75;1.00;;;4.80;99.90;;;;;;5015203;28;20470;-78
2023/04/14 05:37:34;;;;;;;4.50;0.90;;;4.80;99.90;;;;;;4983252;28;20116;-78
2023/04/14 05:40:00;;;;;;;1.92;1.17;;;4.80;99.90;;;;;;5019157;28;20042;-78
2023/04/14 05:42:26;;;;;;;1.48;0.90;;;4.80;99.90;;;;;;5001133;28;20056;-78
2023/04/14 05:44:51;;;;;;;1.65;0.73;;;4.80;99.90;;;;;;4998030;28;20037;-78
2023/04/14 05:47:17;;;;;;;3.53;1.30;;;4.90;99.90;;;;;;5004592;28;20092;-78
2023/04/14 05:49:43;;;;;;;1.95;0.90;;;4.90;99.90;;;;;;5005690;28;20045;-78
2023/04/14 05:52:08;;;;;;;2.15;0.90;;;4.90;99.90;;;;;;5017483;28;20087;-78
2023/04/14 05:54:34;;;;;;;2.65;1.13;;;4.90;99.90;;;;;;5023270;28;20511;-78
2023/04/14 05:57:00;;;;;;;2.45;0.98;;;4.90;99.90;;;;;;4995364;28;20132;-78
2023/04/14 05:59:26;;;;;;;2.75;1.20;;;4.90;99.90;;;;;;5000392;28;20068;-78
2023/04/14 06:01:51;;;;;;;2.72;1.33;;;4.90;99.90;;;;;;5037503;28;20046;-78
2023/04/14 06:04:17;;;;;;;1.92;0.90;;;4.90;99.90;;;;;;5003118;28;20426;-78
2023/04/14 06:06:43;;;;;;;3.78;1.23;;;4.90;99.90;;;;;;5019245;28;20045;-78
2023/04/14 06:09:08;;;;;;;2.60;0.80;;;4.90;99.90;;;;;;5048519;28;20045;-78
2023/04/14 06:11:34;;;;;;;2.00;1.00;;;5.00;99.90;;;;;;4986905;28;20066;-78
2023/04/14 06:14:01;;;;;;;2.58;1.15;;;5.00;99.90;;;;;;5042330;28;20073;-78
2023/04/14 06:16:27;;;;;;;3.95;1.15;;;5.10;99.90;;;;;;5041603;28;20442;-78
2023/04/14 06:18:52;;;;;;;4.95;1.25;;;5.10;99.90;;;;;;4982528;28;20042;-78
2023/04/14 06:21:18;;;;;;;1.73;0.98;;;5.20;99.90;;;;;;5025128;28;20037;-78
2023/04/14 06:23:44;;;;;;;2.08;0.85;;;5.20;99.90;;;;;;5002955;28;20042;-78
2023/04/14 06:26:10;;;;;;;1.05;0.80;;;5.30;99.90;;;;;;5004297;28;20061;-78
2023/04/14 06:28:36;;;;;;;2.05;1.05;;;5.30;99.90;;;;;;5017270;28;20556;-77
2023/04/14 06:31:01;;;;;;;1.75;1.00;;;5.40;99.90;;;;;;5001294;28;20037;-78
2023/04/14 06:33:27;;;;;;;4.97;2.92;;;5.40;99.90;;;;;;5018351;28;20406;-78
2023/04/14 06:35:53;;;;;;;2.97;1.90;;;5.50;99.90;;;;;;5001576;28;20108;-77
2023/04/14 06:38:19;;;;;;;3.00;1.48;;;5.50;99.90;;;;;;5019224;28;20139;-78
2023/04/14 06:40:45;;;;;;;3.17;1.63;;;5.60;99.90;;;;;;5002517;28;20076;-77
2023/04/14 06:43:10;;;;;;;2.88;1.10;;;5.70;99.90;;;;;;5020818;28;20065;-78
2023/04/14 06:45:36;;;;;;;3.60;1.15;;;5.80;99.90;;;;;;5032092;28;20454;-78
2023/04/14 06:48:02;;;;;;;2.00;1.15;;;5.80;99.90;;;;;;5018163;28;20786;-78
2023/04/14 06:50:27;;;;;;;2.03;1.05;;;5.90;99.90;;;;;;5033458;28;20037;-77
2023/04/14 06:52:53;;;;;;;4.68;1.35;;;6.00;99.90;;;;;;5003448;28;20508;-78
2023/04/14 06:55:20;;;;;;;2.63;1.23;;;6.00;99.90;;;;;;5017387;28;20042;-78
2023/04/14 06:57:46;;;;;;;2.17;1.15;;;6.10;99.90;;;;;;5004098;28;20030;-78
2023/04/14 07:00:12;;;;;;;3.00;1.05;;;6.20;99.90;;;;;;5020087;28;20431;-77
2023/04/14 07:02:37;;;;;;;11.48;1.48;;;6.20;99.90;;;;;;5007388;28;20687;-79
2023/04/14 07:05:04;;;;;;;3.05;0.77;;;6.30;99.90;;;;;;5040694;28;20042;-79
2023/04/14 07:07:34;;;;;;;5.03;1.17;;;6.40;99.90;;;;;;5006641;28;20663;-79
2023/04/14 07:10:00;;;;;;;3.28;1.15;;;6.50;99.90;;;;;;5006896;28;20050;-79
2023/04/14 07:12:25;;;;;;;2.65;1.13;;;6.50;99.90;;;;;;5036001;28;20045;-77
2023/04/14 07:14:51;;;;;;;2.50;1.10;;;6.60;99.90;;;;;;5033442;28;20543;-78
2023/04/14 07:17:17;;;;;;;2.55;1.23;;;6.60;99.90;;;;;;5000597;28;20065;-79
2023/04/14 07:19:43;;;;;;;8.15;1.35;;;6.70;99.90;;;;;;5023249;28;20050;-78
2023/04/14 07:22:09;;;;;;;2.45;1.25;;;6.80;99.90;;;;;;5007856;28;20281;-78
2023/04/14 07:24:35;;;;;;;2.33;0.90;;;6.80;99.90;;;;;;5041046;28;21018;-87
2023/04/14 07:27:01;;;;;;;3.17;1.08;;;6.90;99.90;;;;;;5003203;28;20026;-78
2023/04/14 07:29:28;;;;;;;1.95;0.75;;;7.00;99.90;;;;;;5032083;28;20046;-79
2023/04/14 07:31:54;;;;;;;4.00;1.23;;;7.00;99.90;;;;;;5034535;28;20046;-78
2023/04/14 07:34:20;;;;;;;1.27;0.70;;;7.10;99.90;;;;;;5002469;28;20046;-78
2023/04/14 07:36:45;;;;;;;1.95;0.70;;;7.20;99.90;;;;;;5031077;28;20049;-78
2023/04/14 07:39:11;;;;;;;0.95;0.57;;;7.30;99.90;;;;;;5021937;28;20034;-78
2023/04/14 07:41:37;;;;;;;1.63;0.70;;;7.30;99.90;;;;;;5018972;28;20034;-78
2023/04/14 07:44:02;;;;;;;1.80;0.65;;;7.40;99.90;;;;;;5002607;28;20038;-78
2023/04/14 07:46:28;;;;;;;2.28;0.65;;;7.50;99.90;;;;;;5001425;28;20037;-78
2023/04/14 07:48:53;;;;;;;1.95;0.68;;;7.50;99.90;;;;;;4995395;28;20414;-78
2023/04/14 07:51:19;;;;;;;3.40;1.20;;;7.60;99.90;;;;;;5023295;28;20030;-79
2023/04/14 07:53:45;;;;;;;1.48;0.40;;;7.60;99.90;;;;;;4999935;28;20096;-79
2023/04/14 07:56:11;;;;;;;1.50;0.80;;;7.70;99.90;;;;;;5003408;28;20034;-78
2023/04/14 07:58:37;;;;;;;1.23;0.35;;;7.80;99.90;;;;;;5019333;28;20065;-76
2023/04/14 08:01:06;;;;;;;1.92;0.65;;;7.80;99.90;;;;;;5017875;28;20034;-79
2023/04/14 08:03:32;;;;;;;3.17;0.63;;;7.80;99.90;;;;;;5018515;28;20042;-78
2023/04/14 08:05:58;;;;;;;4.90;0.90;;;7.90;99.90;;;;;;5012808;28;20042;-77
2023/04/14 08:08:24;;;;;;;2.25;0.90;;;8.00;99.90;;;;;;5000422;28;20042;-77
2023/04/14 08:10:49;;;;;;;2.13;0.73;;;8.00;99.90;;;;;;5025290;28;20507;-77
2023/04/14 08:13:15;;;;;;;5.18;0.77;;;8.10;99.90;;;;;;5035556;28;20095;-77
2023/04/14 08:15:41;;;;;;;4.30;0.95;;;8.10;99.90;;;;;;5017174;28;20038;-77
2023/04/14 08:18:06;;;;;;;1.00;0.52;;;8.20;99.90;;;;;;5016721;28;20499;-77
2023/04/14 08:20:32;;;;;;;2.63;0.60;;;8.30;99.90;;;;;;5028979;28;20038;-77
2023/04/14 08:22:58;;;;;;;6.35;0.73;;;8.30;99.90;;;;;;4998152;28;20054;-77
2023/04/14 08:25:23;;;;;;;2.13;0.93;;;8.40;99.90;;;;;;5018719;28;20128;-78
2023/04/14 08:27:49;;;;;;;4.80;0.68;;;8.40;99.90;;;;;;5003585;28;20049;-77
2023/04/14 08:30:15;;;;;;;2.40;0.70;;;8.50;99.90;;;;;;5027167;28;20045;-77
2023/04/14 08:32:41;;;;;;;3.38;0.90;;;8.50;99.90;;;;;;5002443;28;20092;-77
2023/04/14 08:35:07;;;;;;;1.98;0.60;;;8.60;99.90;;;;;;5002504;28;20029;-78
2023/04/14 08:37:33;;;;;;;1.83;0.55;;;8.60;99.90;;;;;;5008415;28;20038;-77
2023/04/14 08:39:58;;;;;;;6.53;0.73;;;8.60;99.90;;;;;;5004865;28;20492;-77
2023/04/14 08:42:24;;;;;;;4.53;1.05;;;8.70;99.90;;;;;;5000611;28;20049;-77
2023/04/14 08:44:51;;;;;;;1.55;0.43;;;8.70;99.90;;;;;;4997491;28;20042;-77
2023/04/14 08:47:21;;;;;;;1.65;0.47;;;8.70;99.90;;;;;;4996471;28;20107;-77
2023/04/14 08:50:06;;;;;;;3.20;0.55;;;8.80;99.90;;;;;;5045487;28;20036;-77
2023/04/14 08:52:35;;;;;;;2.90;0.50;;;8.80;99.90;;;;;;5051900;28;20034;-77
2023/04/14 08:55:03;;;;;;;2.50;0.32;;;8.90;99.90;;;;;;5000023;28;20054;-77
2023/04/14 08:57:30;;;;;;;0.65;0.35;;;8.90;99.90;;;;;;5032758;28;20058;-77
2023/04/14 08:59:56;;;;;;;2.72;0.50;;;8.90;99.90;;;;;;5000374;28;20500;-77
2023/04/14 09:02:22;;;;;;;4.57;0.73;;;8.90;99.90;;;;;;5016826;28;20060;-79
2023/04/14 09:04:48;;;;;;;2.28;0.82;;;9.00;99.90;;;;;;5047696;28;20100;-78
2023/04/14 09:07:15;;;;;;;4.30;0.60;;;9.00;99.90;;;;;;4997763;28;20034;-78
2023/04/14 09:09:42;;;;;;;2.47;0.70;;;9.10;99.90;;;;;;5017774;28;20117;-79
2023/04/14 09:12:08;;;;;;;1.77;0.70;;;9.10;99.90;;;;;;5034900;28;20054;-79
2023/04/14 09:14:36;;;;;;;1.17;0.40;;;9.10;99.90;;;;;;5026651;28;20372;-83
2023/04/14 09:17:02;;;;;;;3.78;0.77;;;9.20;99.90;;;;;;5000325;28;20480;-77
2023/04/14 09:19:28;;;;;;;1.65;0.60;;;9.20;99.90;;;;;;5012453;28;20058;-77
2023/04/14 09:21:54;;;;;;;5.63;0.57;;;9.30;99.90;;;;;;5034231;28;20045;-77
2023/04/14 09:24:28;;;;;;;1.75;0.60;;;9.30;99.90;;;;;;5033998;28;20049;-77
2023/04/14 09:26:54;;;;;;;4.50;0.90;;;9.30;99.90;;;;;;5002165;28;20157;-78
2023/04/14 09:29:20;;;;;;;4.53;0.82;;;9.30;99.90;;;;;;5003331;28;20368;-78
2023/04/14 09:31:46;;;;;;;2.17;0.70;;;9.40;99.90;;;;;;5002322;28;20040;-78
2023/04/14 09:34:17;;;;;;;4.00;0.50;;;9.40;99.90;;;;;;5003100;28;20447;-78
2023/04/14 09:36:58;;;;;;;4.82;0.90;;;9.50;99.90;;;;;;5013131;28;20046;-77
2023/04/14 09:39:23;;;;;;;1.92;0.63;;;9.50;99.90;;;;;;5033243;28;20034;-78
2023/04/14 09:41:49;;;;;;;5.45;0.70;;;9.50;99.90;;;;;;5016233;28;20045;-77
2023/04/14 09:44:15;;;;;;;4.70;0.70;;;9.50;99.90;;;;;;5005554;28;20041;-78
2023/04/14 09:47:04;;;;;;;2.47;0.60;;;9.60;99.90;;;;;;5003779;28;20045;-77
2023/04/14 09:49:30;;;;;;;1.55;0.47;;;9.60;99.90;;;;;;4998862;28;20458;-77
2023/04/14 09:52:08;;;;;;;0.82;0.52;;;9.60;99.90;;;;;;5034417;28;20103;-77
2023/04/14 09:54:34;;;;;;;5.78;0.70;;;9.70;99.90;;;;;;5035927;28;20038;-77
2023/04/14 09:57:03;;;;;;;3.67;0.80;;;9.70;99.90;;;;;;5014415;28;20038;-77
2023/04/14 09:59:35;;;;;;;1.95;0.63;;;9.70;99.90;;;;;;4996132;28;20037;-77
2023/04/14 10:02:07;;;;;;;5.90;0.88;;;9.80;99.90;;;;;;5038946;28;20080;-77
2023/04/14 10:04:33;;;;;;;1.60;0.90;;;9.70;99.90;;;;;;4986662;28;20574;-76
2023/04/14 10:06:59;;;;;;;7.15;0.93;;;9.90;99.90;;;;;;4984600;28;20674;-77
2023/04/14 10:09:27;;;;;;;2.20;0.70;;;10.00;99.90;;;;;;4978583;28;20038;-77
2023/04/14 10:12:12;;;;;;;4.07;0.80;;;10.00;99.90;;;;;;4994403;28;20065;-77
2023/04/14 10:14:39;;;;;;;4.45;0.80;;;10.00;99.90;;;;;;4997503;28;20050;-77
2023/04/14 10:17:06;;;;;;;7.85;1.23;;;10.10;99.90;;;;;;4999063;28;20041;-77
2023/04/14 10:19:32;;;;;;;4.10;1.00;;;10.00;99.90;;;;;;5022365;28;20128;-77
2023/04/14 10:21:58;;;;;;;1.60;0.68;;;10.20;99.90;;;;;;4999823;28;20034;-77
2023/04/14 10:24:24;;;;;;;2.63;0.98;;;10.20;99.90;;;;;;4994571;28;20119;-77
2023/04/14 10:26:51;;;;;;;2.88;1.20;;;10.20;99.90;;;;;;5001855;28;20646;-77
2023/04/14 10:29:17;;;;;;;1.73;0.70;;;10.30;99.90;;;;;;5003279;28;20045;-77
2023/04/14 10:32:12;;;;;;;1.45;0.60;;;10.30;99.90;;;;;;5002265;28;20522;-77
2023/04/14 10:34:52;;;;;;;2.50;0.90;;;10.30;99.90;;;;;;4997032;28;20251;-76
2023/04/14 10:37:17;;;;;;;3.88;0.77;;;10.30;99.90;;;;;;4994234;28;20112;-77
2023/04/14 10:39:54;;;;;;;1.17;0.40;;;10.30;99.90;;;;;;5004363;28;20452;-76
2023/04/14 10:42:20;;;;;;;3.25;0.60;;;10.40;99.90;;;;;;5000874;28;20130;-77
2023/04/14 10:45:04;;;;;;;2.13;0.57;;;10.40;99.90;;;;;;5000591;28;20042;-76
2023/04/14 10:47:30;;;;;;;3.40;0.50;;;10.40;99.90;;;;;;5048101;28;20069;-78
2023/04/14 10:49:57;;;;;;;2.63;1.00;;;10.40;99.90;;;;;;5012569;28;20094;-77
2023/04/14 10:52:24;;;;;;;3.75;0.88;;;10.40;99.90;;;;;;4995993;28;20439;-77
2023/04/14 10:55:08;;;;;;;1.48;0.68;;;10.40;99.90;;;;;;5042793;28;20046;-77
2023/04/14 10:57:41;;;;;;;3.30;1.35;;;10.40;99.90;;;;;;5031251;28;20472;-77
2023/04/14 11:00:20;;;;;;;1.60;0.68;;;10.40;99.90;;;;;;4983339;28;20065;-77
2023/04/14 11:03:04;;;;;;;1.85;0.68;;;10.60;99.90;;;;;;5030626;28;20774;-77
2023/04/14 11:05:34;;;;;;;3.05;0.70;;;10.60;99.90;;;;;;5034821;28;20041;-77
2023/04/14 11:08:10;;;;;;;4.50;0.70;;;10.60;99.90;;;;;;5034110;28;20041;-77
2023/04/14 11:10:36;;;;;;;3.88;0.60;;;10.60;99.90;;;;;;5014696;28;20567;-76
2023/04/14 11:13:05;;;;;;;2.10;0.70;;;10.60;99.90;;;;;;5000023;28;20042;-77
2023/04/14 11:16:05;;;;;;;1.65;0.60;;;10.50;99.90;;;;;;4985667;28;20041;-77
2023/04/14 11:18:34;;;;;;;7.78;0.95;;;10.50;99.90;;;;;;5035255;28;20056;-77
2023/04/14 11:21:04;;;;;;;1.65;0.55;;;10.60;99.90;;;;;;5033315;28;20038;-77
2023/04/14 11:23:30;;;;;;;2.33;0.98;;;10.70;99.90;;;;;;5000200;28;20660;-77
2023/04/14 11:25:57;;;;;;;2.50;0.80;;;10.70;99.90;;;;;;5002129;28;20459;-77
2023/04/14 11:28:30;;;;;;;3.30;1.08;;;10.80;99.90;;;;;;5001396;28;20056;-77
2023/04/14 11:30:58;;;;;;;2.45;0.93;;;10.90;99.90;;;;;;5035854;28;20573;-77
2023/04/14 11:33:27;;;;;;;1.65;0.70;;;10.90;99.90;;;;;;5017916;28;20316;-77
2023/04/14 11:35:53;;;;;;;2.60;1.05;;;10.90;99.90;;;;;;5046704;28;20037;-77
2023/04/14 11:38:19;;;;;;;1.83;0.80;;;11.00;99.90;;;;;;5003410;28;20030;-77
2023/04/14 11:40:49;;;;;;;1.48;0.65;;;11.00;99.90;;;;;;5001568;28;20129;-76
2023/04/14 11:43:15;;;;;;;2.95;0.60;;;11.10;99.90;;;;;;4999086;28;20045;-78
2023/04/14 11:45:42;;;;;;;3.17;0.75;;;11.20;99.90;;;;;;5016878;28;20065;-77
2023/04/14 11:48:09;;;;;;;3.13;0.70;;;11.30;99.90;;;;;;4974478;28;20065;-76
2023/04/14 11:50:40;;;;;;;0.98;0.57;;;11.50;99.90;;;;;;5031012;28;20046;-76
2023/04/14 11:53:11;;;;;;;2.58;0.60;;;11.80;99.90;;;;;;4984175;28;20172;-75
2023/04/14 11:55:44;;;;;;;6.13;0.90;;;11.90;99.90;;;;;;4991313;28;20034;-77
2023/04/14 11:58:12;;;;;;;4.43;0.85;;;11.90;99.90;;;;;;5030409;28;20284;-77
2023/04/14 12:00:39;;;;;;;2.53;0.63;;;11.70;99.90;;;;;;4978271;28;20603;-77
2023/04/14 12:03:09;;;;;;;0.82;0.43;;;11.70;99.90;;;;;;4997934;28;21282;-77
2023/04/14 12:05:34;;;;;;;1.95;0.80;;;11.60;99.90;;;;;;4999078;28;20045;-77
2023/04/14 12:08:03;;;;;;;1.85;0.75;;;11.70;99.90;;;;;;5035397;28;20046;-77
2023/04/14 12:10:29;;;;;;;3.30;0.80;;;11.70;99.90;;;;;;5040799;28;20060;-77
2023/04/14 12:13:03;;;;;;;2.65;0.68;;;11.70;99.90;;;;;;5023883;28;20045;-77
2023/04/14 12:15:37;;;;;;;5.00;0.85;;;11.70;99.90;;;;;;4990209;28;20041;-77
2023/04/14 12:18:08;;;;;;;4.57;1.05;;;11.70;99.90;;;;;;5013126;28;20049;-77
2023/04/14 12:21:00;;;;;;;1.52;0.70;;;11.60;99.90;;;;;;5019297;28;20557;-77
2023/04/14 12:23:26;;;;;;;5.30;0.90;;;11.60;99.90;;;;;;4990072;28;20045;-76
2023/04/14 12:25:52;;;;;;;2.58;0.70;;;11.70;99.90;;;;;;5009847;28;20100;-77
2023/04/14 12:28:26;;;;;;;5.85;1.13;;;11.80;99.90;;;;;;5037298;28;20041;-77
2023/04/14 12:30:55;;;;;;;6.25;0.80;;;11.80;99.90;;;;;;5056313;28;20040;-77
2023/04/14 12:33:26;;;;;;;3.38;0.90;;;11.90;99.90;;;;;;4990719;28;20042;-77
2023/04/14 12:35:52;;;;;;;4.88;1.02;;;11.80;99.90;;;;;;5005828;28;20129;-77
2023/04/14 12:38:18;;;;;;;1.92;0.90;;;11.80;99.90;;;;;;4991047;28;20487;-77
2023/04/14 12:40:45;;;;;;;1.92;1.00;;;11.70;99.90;;;;;;4989988;28;20039;-77
2023/04/14 12:43:15;;;;;;;3.25;0.63;;;11.70;99.90;;;;;;4995961;28;20133;-78
2023/04/14 12:45:47;;;;;;;4.95;1.13;;;11.80;99.90;;;;;;4992531;28;20038;-77
2023/04/14 12:48:15;;;;;;;1.85;0.90;;;11.80;99.90;;;;;;5027359;28;20056;-77
2023/04/14 12:50:41;;;;;;;4.70;0.95;;;11.90;99.90;;;;;;5005453;28;20096;-78
2023/04/14 12:53:27;;;;;;;4.50;1.00;;;11.90;99.90;;;;;;5021223;28;20038;-78
2023/04/14 12:56:22;;;;;;;2.67;0.90;;;11.90;99.90;;;;;;5052220;28;20042;-77
2023/04/14 12:58:49;;;;;;;2.03;0.95;;;11.90;99.90;;;;;;4988883;28;20127;-78
2023/04/14 13:01:17;;;;;;;1.50;0.75;;;12.00;99.90;;;;;;4997335;28;20619;-78
2023/04/14 13:03:53;;;;;;;2.35;0.80;;;12.10;99.90;;;;;;4999159;28;20054;-78